SBRB

Plácido de Castro Airport

Rio Branco, Brazil
TAF SBRB 192200Z 2000/2024 36005KT 9999 TS SCT030 FEW035CB TN22/2008Z TX34/2017Z BECMG 2001/2003 34003KT CAVOK BECMG 2012/2014 36007KT 999 9 SCT025 BECMG 2016/2018 SCT030 FEW035TCU RMK PFM
Issued Valid From Valid To
Sep-19 @ 22:00 UTC
(3 hours ago)
Sep-20 @ 00:00 UTC
(48 minutes ago)
Sep-21 @ 00:00 UTC
(in 23 hours)
Sep-20 @ 00:00 to Sep-20 @ 01:00
TAF SBRB 192200Z 2000/2024 36005KT 9999 TS SCT030 FEW035CB TN22/2008Z TX34/2017Z
Wind Visibility Clouds Conditions
360° at 5 knots 10,000+ meters
  • Scattered at 3,000' AGL
  • Few at 3,500' AGL
  • Thunderstorm
Becoming Sep-20 @ 01:00 to Sep-20 @ 12:00
BECMG 2001/2003 34003KT CAVOK
Wind Visibility Clouds Conditions
340° at 3 knots 10,000+ meters
  • No significant clouds
Becoming Sep-20 @ 12:00 to Sep-20 @ 16:00
BECMG 2012/2014 36007KT 999 9 SCT025
Wind Visibility Clouds Conditions
360° at 7 knots 10,000+ meters
  • Scattered at 2,500' AGL
Becoming Sep-20 @ 16:00 to Sep-21 @ 00:00
BECMG 2016/2018 SCT030 FEW035TCU RMK PFM
Wind Visibility Clouds Conditions
360° at 7 knots 10,000+ meters
  • Scattered at 3,000' AGL
  • Few at 3,500' AGL
TAF SBRB 192200Z 2000/2024 36005KT 9999 TS SCT030 FEW035CB TN22/2008Z TX34/2017Z BECMG 2001/2003 34003KT CAVOK BECMG 2012/2014 36007KT 999 9 SCT025 BECMG 2016/2018 SCT030 FEW035TCU RMK PFM
Issued Sep-19 @ 22:00 UTC
(3 hours ago)
Valid From Sep-20 @ 00:00 UTC
(48 minutes ago)
Valid To Sep-21 @ 00:00 UTC
(in 23 hours)
Sep-20 @ 00:00 - Sep-20 @ 01:00
Wind Visibility
360° at 5 knots 10,000+ meters
Clouds
  • Scattered at 3,000' AGL
  • Few at 3,500' AGL
Conditions
  • Thunderstorm
Becoming Sep-20 @ 01:00 - Sep-20 @ 12:00
Wind Visibility
340° at 3 knots 10,000+ meters
Clouds
  • No significant clouds
Conditions
Becoming Sep-20 @ 12:00 - Sep-20 @ 16:00
Wind Visibility
360° at 7 knots 10,000+ meters
Clouds
  • Scattered at 2,500' AGL
Conditions
Becoming Sep-20 @ 16:00 - Sep-21 @ 00:00
Wind Visibility
360° at 7 knots 10,000+ meters
Clouds
  • Scattered at 3,000' AGL
  • Few at 3,500' AGL
Conditions